Terminal Aerodrome Forecast
Issued by NWS

Current Version | Previous Version | Text Only | Print | Product List | Glossary On
Versions: 1 2 3 4 5 6 7 8 9 10 11 12 13 14 15 16 17 18 19
000
FTUS43 KGRB 300500
TAFAUW
TAF
KAUW 300520Z 3006/3106 34011G17KT P6SM -SN SCT020 BKN040
     FM300800 33009KT P6SM SCT020 BKN040
      TEMPO 3010/3014 SCT040
     FM301400 32005KT P6SM SCT040 BKN150
     FM310000 21004KT P6SM BKN090
     FM310400 19004KT P6SM SCT090 BKN200=

USA.gov is the U.S. government's official web portal to all federal, state and local government web resources and services.